createdAt,value
2018-12-16T00:00:33.407Z,21.30
2018-12-16T00:03:01.809Z,20.80
2018-12-16T00:05:30.128Z,20.90
2018-12-16T00:07:58.288Z,20.70
2018-12-16T00:10:26.470Z,20.80
2018-12-16T00:12:53.937Z,20.80
2018-12-16T00:15:21.428Z,21.10
2018-12-16T00:17:48.886Z,21.00
2018-12-16T00:20:17.031Z,21.40
2018-12-16T00:22:45.223Z,21.70
2018-12-16T00:25:13.439Z,21.00
2018-12-16T00:27:41.636Z,20.50
2018-12-16T00:30:09.879Z,20.70
2018-12-16T00:32:38.040Z,21.20
2018-12-16T00:35:06.649Z,20.50
2018-12-16T00:37:34.173Z,21.00
2018-12-16T00:40:02.456Z,21.10
2018-12-16T00:42:30.631Z,21.60
2018-12-16T00:44:58.771Z,21.20
2018-12-16T00:47:26.607Z,21.50
2018-12-16T00:49:54.348Z,21.70
2018-12-16T00:52:22.579Z,22.50
2018-12-16T00:54:50.854Z,22.00
2018-12-16T00:57:19.099Z,22.40
2018-12-16T00:59:47.303Z,22.10
2018-12-16T01:02:20.130Z,22.10
2018-12-16T01:04:48.252Z,22.00
2018-12-16T01:07:16.429Z,22.50
2018-12-16T01:09:44.763Z,22.10
2018-12-16T01:12:12.999Z,22.10
2018-12-16T01:14:41.208Z,22.20
2018-12-16T01:17:09.560Z,22.20
2018-12-16T01:19:37.691Z,22.20
2018-12-16T01:22:05.999Z,22.10
2018-12-16T01:24:33.539Z,22.10
2018-12-16T01:27:01.741Z,22.40
2018-12-16T01:29:29.891Z,23.00
2018-12-16T01:31:58.084Z,22.60
2018-12-16T01:34:26.251Z,22.10
2018-12-16T01:36:54.372Z,22.20
2018-12-16T01:39:22.544Z,22.10
2018-12-16T01:41:50.893Z,22.20
2018-12-16T01:44:19.056Z,22.20
2018-12-16T01:46:47.200Z,22.30
2018-12-16T01:49:15.374Z,22.20
2018-12-16T01:51:43.548Z,22.30
2018-12-16T01:54:11.715Z,22.20
2018-12-16T01:56:39.192Z,21.50
2018-12-16T01:59:07.340Z,21.30
2018-12-16T02:01:34.808Z,22.20
2018-12-16T02:04:02.967Z,21.90
2018-12-16T02:06:31.119Z,21.80
2018-12-16T02:08:59.304Z,21.30
2018-12-16T02:11:26.766Z,21.70
2018-12-16T02:13:54.927Z,21.10
2018-12-16T02:16:23.160Z,22.70
2018-12-16T02:18:51.384Z,21.40
2018-12-16T02:21:19.531Z,22.20
2018-12-16T02:23:47.787Z,21.90
2018-12-16T02:26:15.932Z,22.20
2018-12-16T02:28:44.136Z,21.90
2018-12-16T02:31:12.413Z,21.50
2018-12-16T02:33:40.609Z,22.10
2018-12-16T02:36:08.871Z,22.20
2018-12-16T02:38:37.035Z,21.60
2018-12-16T02:41:05.200Z,21.60
2018-12-16T02:43:32.658Z,21.90
2018-12-16T02:46:00.835Z,22.20
2018-12-16T02:48:29.108Z,22.20
2018-12-16T02:50:57.335Z,22.20
2018-12-16T02:53:25.541Z,22.00
2018-12-16T02:55:53.692Z,22.20
2018-12-16T02:58:21.843Z,21.90
2018-12-16T03:00:50.006Z,22.20
2018-12-16T03:03:18.349Z,22.20
2018-12-16T03:05:46.712Z,22.20
2018-12-16T03:08:14.860Z,22.20
2018-12-16T03:10:43.123Z,22.40
2018-12-16T03:13:11.275Z,22.90
2018-12-16T03:15:39.504Z,22.90
2018-12-16T03:18:07.756Z,22.40
2018-12-16T03:20:36.008Z,23.10
2018-12-16T03:23:11.821Z,22.30
2018-12-16T03:25:34.436Z,22.30
2018-12-16T03:28:02.590Z,22.30
2018-12-16T03:30:30.835Z,23.00
2018-12-16T03:32:59.313Z,22.80
2018-12-16T03:35:27.651Z,23.20
2018-12-16T03:37:55.925Z,22.90
2018-12-16T03:40:24.155Z,22.50
2018-12-16T03:42:52.312Z,22.40
2018-12-16T03:45:20.605Z,22.70
2018-12-16T03:47:48.845Z,23.00
2018-12-16T03:50:17.132Z,24.20
2018-12-16T03:52:45.383Z,25.10
2018-12-16T03:55:13.751Z,25.80
2018-12-16T03:57:41.900Z,27.00
2018-12-16T04:00:09.416Z,28.20
2018-12-16T04:02:36.967Z,30.00
2018-12-16T04:05:05.568Z,32.40
2018-12-16T04:07:33.720Z,33.80
2018-12-16T04:10:01.892Z,34.40
2018-12-16T04:12:30.022Z,35.70
2018-12-16T04:14:58.465Z,37.00
2018-12-16T04:17:26.183Z,36.80
2018-12-16T04:19:54.505Z,37.70
2018-12-16T04:22:22.098Z,38.60
2018-12-16T04:24:50.264Z,38.30
2018-12-16T04:27:18.511Z,38.20
2018-12-16T04:29:46.638Z,38.30
2018-12-16T04:32:14.891Z,38.90
2018-12-16T04:34:43.104Z,39.00
2018-12-16T04:37:11.351Z,39.10
2018-12-16T04:39:39.724Z,39.30
2018-12-16T04:42:07.924Z,39.20
2018-12-16T04:44:35.383Z,39.80
2018-12-16T04:47:03.515Z,39.80
2018-12-16T04:49:31.684Z,40.60
2018-12-16T04:51:59.944Z,40.90
2018-12-16T04:54:28.468Z,41.70
2018-12-16T04:56:55.914Z,43.20
2018-12-16T04:59:24.078Z,44.10
2018-12-16T05:01:51.638Z,45.70
2018-12-16T05:04:19.167Z,46.20
2018-12-16T05:06:46.663Z,45.70
2018-12-16T05:09:14.830Z,45.80
2018-12-16T05:11:43.015Z,45.80
2018-12-16T05:14:11.447Z,46.30
2018-12-16T05:16:39.636Z,46.30
2018-12-16T05:19:07.835Z,46.40
2018-12-16T05:21:35.982Z,46.70
2018-12-16T05:24:04.271Z,47.30
2018-12-16T05:26:32.419Z,47.10
2018-12-16T05:29:00.584Z,46.60
2018-12-16T05:31:28.859Z,46.90
2018-12-16T05:33:57.019Z,46.30
2018-12-16T05:36:25.275Z,46.70
2018-12-16T05:38:53.665Z,46.30
2018-12-16T05:41:21.860Z,46.30
2018-12-16T05:43:50.128Z,46.10
2018-12-16T05:46:18.515Z,46.30
2018-12-16T05:48:46.163Z,46.30
2018-12-16T05:51:13.687Z,46.30
2018-12-16T05:53:48.382Z,47.00
2018-12-16T05:56:12.047Z,47.10
2018-12-16T05:58:40.255Z,46.30
2018-12-16T06:01:08.507Z,46.40
2018-12-16T06:03:36.657Z,46.70
2018-12-16T06:06:05.005Z,47.10
2018-12-16T06:08:33.283Z,46.50
2018-12-16T06:11:01.487Z,46.30
2018-12-16T06:13:29.640Z,46.30
2018-12-16T06:15:57.801Z,46.80
2018-12-16T06:18:25.975Z,46.70
2018-12-16T06:20:54.195Z,46.50
2018-12-16T06:23:22.316Z,46.40
2018-12-16T06:25:50.515Z,46.30
2018-12-16T06:28:18.674Z,46.40
2018-12-16T06:30:47.328Z,46.40
2018-12-16T06:33:15.583Z,45.70
2018-12-16T06:35:43.827Z,45.70
2018-12-16T06:38:12.000Z,45.20
2018-12-16T06:40:40.172Z,44.80
2018-12-16T06:43:08.378Z,44.50
2018-12-16T06:45:36.619Z,44.30
2018-12-16T06:48:04.800Z,44.60
2018-12-16T06:50:33.051Z,45.00
2018-12-16T06:53:01.231Z,44.60
2018-12-16T06:55:29.371Z,44.40
2018-12-16T06:57:58.182Z,44.40
2018-12-16T07:00:26.415Z,44.80
2018-12-16T07:02:54.676Z,44.60
2018-12-16T07:05:23.012Z,45.00
2018-12-16T07:07:51.287Z,45.20
2018-12-16T07:10:19.563Z,45.20
2018-12-16T07:12:47.712Z,44.70
2018-12-16T07:15:16.139Z,44.90
2018-12-16T07:20:41.939Z,44.30
2018-12-16T07:23:10.135Z,45.00
2018-12-16T07:25:38.292Z,45.30
2018-12-16T07:28:06.487Z,45.00
2018-12-16T07:30:34.666Z,44.40
2018-12-16T07:33:02.884Z,44.50
2018-12-16T07:35:31.125Z,44.80
2018-12-16T07:37:59.352Z,44.60
2018-12-16T07:40:27.491Z,44.30
2018-12-16T07:42:55.754Z,44.50
2018-12-16T07:45:24.049Z,45.10
2018-12-16T07:47:52.264Z,44.40
2018-12-16T07:50:20.507Z,44.50
2018-12-16T07:52:48.832Z,44.30
2018-12-16T07:55:17.130Z,44.20
2018-12-16T07:57:45.323Z,44.40
2018-12-16T08:00:13.628Z,44.40
2018-12-16T08:02:41.805Z,44.40
2018-12-16T08:05:10.109Z,44.60
2018-12-16T08:07:38.333Z,45.10
2018-12-16T08:10:07.592Z,45.20
2018-12-16T08:12:35.750Z,45.10
2018-12-16T08:15:04.575Z,45.00
2018-12-16T08:17:32.783Z,44.80
2018-12-16T08:20:00.941Z,44.80
2018-12-16T08:22:29.145Z,45.20
2018-12-16T08:24:57.330Z,45.50
2018-12-16T08:27:25.532Z,45.70
2018-12-16T08:29:53.674Z,45.40
2018-12-16T08:32:21.971Z,45.40
2018-12-16T08:34:50.927Z,45.00
2018-12-16T08:37:19.131Z,45.00
2018-12-16T08:42:40.411Z,44.50
2018-12-16T08:45:08.736Z,44.40
2018-12-16T08:47:37.015Z,44.40
2018-12-16T08:50:06.137Z,44.70
2018-12-16T08:52:34.434Z,44.80
2018-12-16T08:55:02.788Z,45.60
2018-12-16T08:57:30.931Z,45.60
2018-12-16T08:59:59.342Z,45.30
2018-12-16T09:02:27.519Z,45.20
2018-12-16T09:04:55.964Z,45.10
2018-12-16T09:07:24.272Z,45.00
2018-12-16T09:09:52.432Z,44.80
2018-12-16T09:12:20.723Z,44.70
2018-12-16T09:14:49.635Z,45.50
2018-12-16T09:17:17.990Z,45.00
2018-12-16T09:19:46.555Z,45.00
2018-12-16T09:22:14.830Z,45.50
2018-12-16T09:24:43.072Z,45.60
2018-12-16T09:27:12.382Z,45.50
2018-12-16T09:29:40.845Z,45.50
2018-12-16T09:32:09.043Z,45.00
2018-12-16T09:34:37.231Z,45.00
2018-12-16T09:37:05.616Z,44.90
2018-12-16T09:39:33.803Z,44.80
2018-12-16T09:42:02.617Z,44.90
2018-12-16T09:44:31.390Z,44.80
2018-12-16T09:46:59.814Z,45.40
2018-12-16T09:49:28.501Z,45.60
2018-12-16T09:51:56.956Z,45.30
2018-12-16T09:54:25.563Z,45.80
2018-12-16T09:56:54.120Z,45.60
2018-12-16T09:59:23.112Z,44.70
2018-12-16T10:01:51.824Z,44.50
2018-12-16T10:04:20.314Z,43.50
2018-12-16T10:06:49.461Z,43.50
2018-12-16T10:09:19.411Z,42.90
2018-12-16T10:11:48.671Z,42.60
2018-12-16T10:14:17.078Z,42.90
2018-12-16T10:16:45.800Z,42.70
2018-12-16T10:19:14.379Z,42.50
2018-12-16T10:21:43.057Z,42.10
2018-12-16T10:24:11.746Z,42.10
2018-12-16T10:26:40.799Z,42.00
2018-12-16T10:29:09.078Z,42.20
2018-12-16T10:31:37.240Z,42.70
2018-12-16T10:34:05.583Z,41.90
2018-12-16T10:36:33.822Z,41.40
2018-12-16T10:39:02.068Z,41.70
2018-12-16T10:41:30.258Z,41.50
2018-12-16T10:43:58.419Z,42.80
2018-12-16T10:46:26.628Z,41.90
2018-12-16T10:48:55.189Z,41.90
2018-12-16T10:51:24.639Z,41.70
2018-12-16T10:53:52.775Z,41.40
2018-12-16T10:56:21.031Z,42.00
2018-12-16T10:58:49.481Z,42.20
2018-12-16T11:01:23.075Z,41.90
2018-12-16T11:03:51.233Z,41.90
2018-12-16T11:06:19.384Z,42.00
2018-12-16T11:08:48.131Z,42.00
2018-12-16T11:11:16.459Z,42.00
2018-12-16T11:13:44.647Z,42.20
2018-12-16T11:16:12.828Z,42.00
2018-12-16T11:18:40.973Z,41.80
2018-12-16T11:21:09.365Z,41.00
2018-12-16T11:23:37.543Z,41.70
2018-12-16T11:26:06.497Z,40.70
2018-12-16T11:28:34.711Z,40.40
2018-12-16T11:31:03.116Z,44.60
2018-12-16T11:33:31.403Z,40.80
2018-12-16T11:35:59.771Z,39.10
2018-12-16T11:38:28.222Z,38.30
2018-12-16T11:40:56.435Z,38.20
2018-12-16T11:43:24.632Z,38.00
2018-12-16T11:45:52.804Z,38.40
2018-12-16T11:48:21.040Z,39.00
2018-12-16T11:50:49.207Z,39.10
2018-12-16T11:53:17.396Z,39.10
2018-12-16T11:55:45.871Z,38.90
2018-12-16T11:58:14.097Z,39.00
2018-12-16T12:00:42.284Z,39.60
2018-12-16T12:03:10.455Z,39.20
2018-12-16T12:05:38.618Z,39.40
2018-12-16T12:08:06.807Z,39.20
2018-12-16T12:10:35.267Z,39.20
2018-12-16T12:13:03.572Z,38.90
2018-12-16T12:15:31.699Z,38.10
2018-12-16T12:18:00.008Z,38.00
2018-12-16T12:20:28.580Z,38.10
2018-12-16T12:22:57.636Z,39.30
2018-12-16T12:25:25.786Z,39.20
2018-12-16T12:27:53.982Z,38.40
2018-12-16T12:30:22.255Z,38.20
2018-12-16T12:32:50.412Z,39.40
2018-12-16T12:35:18.715Z,39.40
2018-12-16T12:37:47.016Z,39.50
2018-12-16T12:40:15.135Z,38.80
2018-12-16T12:42:43.347Z,38.60
2018-12-16T12:45:11.539Z,38.90
2018-12-16T12:47:39.731Z,38.50
2018-12-16T12:50:08.609Z,38.60
2018-12-16T12:52:36.783Z,38.80
2018-12-16T12:55:05.262Z,38.30
2018-12-16T12:57:33.831Z,38.70
2018-12-16T13:00:02.271Z,39.30
2018-12-16T13:02:30.504Z,39.00
2018-12-16T13:04:58.705Z,39.50
2018-12-16T13:07:27.412Z,39.60
2018-12-16T13:09:55.587Z,39.50
2018-12-16T13:12:23.828Z,39.60
2018-12-16T13:14:52.160Z,39.20
2018-12-16T13:17:20.480Z,39.70
2018-12-16T13:19:49.491Z,39.60
2018-12-16T13:22:17.690Z,39.60
2018-12-16T13:24:57.169Z,39.70
2018-12-16T13:27:25.497Z,39.60
2018-12-16T13:29:53.681Z,39.70
2018-12-16T13:32:22.104Z,39.70
2018-12-16T13:34:50.351Z,40.00
2018-12-16T13:37:19.399Z,40.30
2018-12-16T13:39:48.340Z,40.70
2018-12-16T13:42:16.539Z,40.70
2018-12-16T13:44:44.684Z,40.50
2018-12-16T13:47:12.862Z,39.70
2018-12-16T13:49:41.127Z,40.10
2018-12-16T13:52:09.283Z,39.80
2018-12-16T13:54:37.441Z,39.90
2018-12-16T13:57:05.687Z,40.30
2018-12-16T13:59:33.932Z,39.80
2018-12-16T14:02:02.125Z,39.80
2018-12-16T14:04:30.268Z,46.70
2018-12-16T14:06:58.451Z,43.60
2018-12-16T14:09:26.719Z,41.40
2018-12-16T14:11:54.891Z,39.90
2018-12-16T14:14:23.071Z,40.80
2018-12-16T14:16:51.199Z,41.90
2018-12-16T14:19:19.475Z,42.70
2018-12-16T14:21:47.685Z,42.80
2018-12-16T14:24:16.101Z,43.30
2018-12-16T14:26:44.307Z,43.50
2018-12-16T14:29:12.475Z,43.90
2018-12-16T14:31:40.733Z,43.60
2018-12-16T14:34:08.960Z,43.70
2018-12-16T14:36:37.191Z,43.70
2018-12-16T14:39:07.435Z,44.20
2018-12-16T14:41:35.945Z,44.50
2018-12-16T14:44:04.215Z,44.30
2018-12-16T14:46:32.397Z,45.00
2018-12-16T14:49:00.595Z,44.50
2018-12-16T14:51:28.729Z,44.30
2018-12-16T14:53:56.992Z,44.90
2018-12-16T14:56:25.324Z,44.90
2018-12-16T14:58:53.677Z,45.00
2018-12-16T15:01:21.908Z,45.30
2018-12-16T15:03:50.141Z,45.50
2018-12-16T15:06:18.287Z,46.00
2018-12-16T15:08:46.402Z,49.40
2018-12-16T15:11:14.682Z,49.60
2018-12-16T15:13:42.868Z,47.70
2018-12-16T15:16:11.147Z,47.90
2018-12-16T15:18:39.335Z,46.90
2018-12-16T15:21:07.467Z,47.00
2018-12-16T15:23:35.619Z,47.10
2018-12-16T15:26:04.244Z,47.50
2018-12-16T15:28:32.523Z,48.40
2018-12-16T15:31:00.697Z,48.60
2018-12-16T15:33:28.885Z,48.60
2018-12-16T15:35:57.151Z,48.60
2018-12-16T15:38:25.384Z,48.60
2018-12-16T15:40:53.576Z,48.60
2018-12-16T15:43:21.731Z,48.60
2018-12-16T15:45:49.874Z,49.60
2018-12-16T15:48:18.107Z,50.00
2018-12-16T15:50:47.821Z,50.50
2018-12-16T15:53:16.547Z,50.80
2018-12-16T15:55:44.811Z,50.00
2018-12-16T15:58:12.971Z,49.80
2018-12-16T16:00:41.143Z,50.70
2018-12-16T16:03:09.284Z,50.50
2018-12-16T16:05:38.482Z,50.40
2018-12-16T16:08:06.724Z,49.60
2018-12-16T16:10:34.989Z,49.90
2018-12-16T16:13:03.255Z,49.90
2018-12-16T16:15:31.463Z,49.90
2018-12-16T16:17:59.646Z,51.10
2018-12-16T16:20:27.919Z,51.10
2018-12-16T16:22:56.140Z,51.00
2018-12-16T16:25:24.348Z,50.00
2018-12-16T16:27:52.553Z,50.80
2018-12-16T16:30:21.147Z,50.80
2018-12-16T16:32:49.315Z,51.30
2018-12-16T16:35:17.603Z,51.00
2018-12-16T16:37:45.771Z,50.30
2018-12-16T16:40:14.407Z,49.80
2018-12-16T16:42:42.587Z,50.50
2018-12-16T16:45:10.728Z,51.30
2018-12-16T16:47:38.991Z,51.60
2018-12-16T16:50:07.295Z,53.00
2018-12-16T16:52:35.403Z,54.10
2018-12-16T16:55:03.844Z,54.40
2018-12-16T16:57:32.031Z,54.10
2018-12-16T17:00:00.506Z,54.20
2018-12-16T17:02:28.703Z,53.20
2018-12-16T17:04:56.927Z,52.70
2018-12-16T17:07:25.071Z,52.20
2018-12-16T17:09:53.297Z,51.80
2018-12-16T17:12:21.450Z,50.90
2018-12-16T17:14:50.066Z,51.40
2018-12-16T17:17:18.188Z,51.00
2018-12-16T17:19:46.331Z,50.60
2018-12-16T17:22:14.581Z,49.90
2018-12-16T17:27:35.863Z,50.60
2018-12-16T17:30:06.175Z,51.00
2018-12-16T17:32:34.511Z,51.10
2018-12-16T17:35:02.779Z,51.30
2018-12-16T17:37:30.951Z,51.90
2018-12-16T17:39:59.151Z,52.40
2018-12-16T17:42:27.293Z,51.60
2018-12-16T17:44:55.547Z,50.70
2018-12-16T17:47:23.730Z,50.10
2018-12-16T17:49:52.135Z,49.40
2018-12-16T17:52:20.399Z,49.50
2018-12-16T17:54:48.584Z,50.50
2018-12-16T17:57:16.735Z,50.60
2018-12-16T17:59:44.902Z,51.10
2018-12-16T18:02:13.066Z,51.70
2018-12-16T18:04:42.085Z,51.70
2018-12-16T18:07:10.315Z,51.10
2018-12-16T18:09:38.622Z,50.40
2018-12-16T18:12:06.783Z,49.70
2018-12-16T18:14:35.050Z,48.90
2018-12-16T18:17:04.187Z,49.50
2018-12-16T18:19:32.359Z,48.90
2018-12-16T18:22:01.402Z,48.90
2018-12-16T18:24:29.987Z,48.90
2018-12-16T18:26:58.173Z,48.50
2018-12-16T18:29:26.279Z,48.50
2018-12-16T18:31:54.732Z,48.90
2018-12-16T18:34:22.991Z,48.90
2018-12-16T18:36:51.378Z,48.70
2018-12-16T18:39:19.632Z,49.30
2018-12-16T18:41:48.311Z,50.90
2018-12-16T18:44:16.483Z,51.90
2018-12-16T18:46:44.720Z,51.80
2018-12-16T18:49:12.992Z,51.60
2018-12-16T18:51:41.408Z,51.30
2018-12-16T18:54:09.519Z,51.80
2018-12-16T18:56:37.669Z,52.50
2018-12-16T18:59:05.806Z,53.70
2018-12-16T19:01:35.151Z,54.10
2018-12-16T19:04:03.375Z,53.80
2018-12-16T19:06:31.639Z,53.30
2018-12-16T19:08:59.847Z,53.30
2018-12-16T19:11:28.855Z,53.50
2018-12-16T19:13:57.021Z,54.80
2018-12-16T19:16:25.159Z,56.00
2018-12-16T19:18:53.920Z,56.90
2018-12-16T19:21:22.143Z,57.40
2018-12-16T19:23:50.272Z,57.70
2018-12-16T19:26:18.448Z,58.50
2018-12-16T19:28:46.713Z,59.60
2018-12-16T19:31:14.915Z,60.10
2018-12-16T19:33:43.042Z,60.20
2018-12-16T19:36:11.251Z,60.10
2018-12-16T19:38:39.563Z,59.40
2018-12-16T19:41:07.730Z,59.40
2018-12-16T19:43:35.850Z,59.30
2018-12-16T19:46:04.275Z,59.20
2018-12-16T19:48:32.425Z,59.30
2018-12-16T19:51:00.636Z,59.80
2018-12-16T19:53:30.751Z,60.40
2018-12-16T19:55:59.260Z,61.10
2018-12-16T19:58:28.008Z,61.30
2018-12-16T20:00:56.171Z,60.50
2018-12-16T20:03:24.348Z,59.50
2018-12-16T20:05:58.010Z,59.50
2018-12-16T20:08:26.152Z,58.70
2018-12-16T20:10:54.267Z,59.50
2018-12-16T20:13:22.416Z,59.50
2018-12-16T20:15:52.627Z,60.10
2018-12-16T20:18:20.868Z,60.50
2018-12-16T20:20:49.048Z,60.60
2018-12-16T20:23:17.279Z,59.90
2018-12-16T20:25:45.427Z,58.50
2018-12-16T20:28:15.499Z,57.90
2018-12-16T20:30:43.671Z,58.20
2018-12-16T20:33:11.864Z,58.00
2018-12-16T20:35:40.059Z,57.70
2018-12-16T20:38:08.479Z,56.50
2018-12-16T20:40:36.927Z,56.50
2018-12-16T20:43:05.172Z,56.00
2018-12-16T20:45:33.291Z,54.90
2018-12-16T20:48:01.439Z,54.20
2018-12-16T20:50:29.587Z,54.10
2018-12-16T20:52:57.963Z,53.50
2018-12-16T20:55:26.147Z,53.20
2018-12-16T20:57:54.383Z,52.50
2018-12-16T21:00:22.535Z,52.20
2018-12-16T21:02:51.780Z,51.80
2018-12-16T21:05:19.907Z,51.90
2018-12-16T21:07:48.056Z,52.20
2018-12-16T21:10:16.203Z,52.60
2018-12-16T21:12:49.755Z,52.50
2018-12-16T21:15:23.363Z,52.80
2018-12-16T21:17:56.959Z,52.40
2018-12-16T21:20:25.291Z,52.20
2018-12-16T21:22:53.593Z,52.00
2018-12-16T21:25:21.779Z,52.40
2018-12-16T21:27:50.045Z,52.30
2018-12-16T21:30:18.224Z,51.70
2018-12-16T21:32:46.460Z,52.40
2018-12-16T21:35:14.769Z,52.20
2018-12-16T21:37:42.951Z,51.50
2018-12-16T21:40:11.160Z,51.50
2018-12-16T21:42:39.303Z,51.30
2018-12-16T21:45:07.661Z,50.60
2018-12-16T21:47:35.827Z,50.30
2018-12-16T21:50:04.356Z,51.40
2018-12-16T21:52:32.543Z,50.90
2018-12-16T21:55:00.715Z,50.60
2018-12-16T21:57:32.982Z,50.50
2018-12-16T21:59:59.251Z,50.30
2018-12-16T22:02:27.557Z,51.10
2018-12-16T22:04:55.772Z,51.20
2018-12-16T22:07:23.931Z,51.90
2018-12-16T22:09:52.059Z,52.00
2018-12-16T22:12:20.207Z,52.30
2018-12-16T22:14:48.403Z,52.40
2018-12-16T22:17:16.620Z,51.90
2018-12-16T22:19:44.763Z,51.50
2018-12-16T22:22:12.907Z,51.20
2018-12-16T22:24:41.075Z,50.90
2018-12-16T22:27:09.275Z,51.40
2018-12-16T22:29:37.741Z,51.70
2018-12-16T22:32:05.943Z,51.70
2018-12-16T22:34:34.107Z,51.50
2018-12-16T22:37:02.260Z,51.60
2018-12-16T22:39:30.399Z,52.40
2018-12-16T22:41:58.660Z,51.90
2018-12-16T22:44:26.855Z,51.50
2018-12-16T22:46:55.235Z,51.10
2018-12-16T22:49:23.417Z,50.60
2018-12-16T22:51:51.635Z,51.30
2018-12-16T22:54:19.795Z,51.50
2018-12-16T22:56:47.955Z,52.30
2018-12-16T22:59:16.111Z,52.50
2018-12-16T23:01:44.331Z,53.50
2018-12-16T23:04:12.490Z,53.60
2018-12-16T23:06:40.735Z,53.80
2018-12-16T23:09:08.891Z,54.00
2018-12-16T23:11:37.367Z,54.30
2018-12-16T23:14:05.559Z,54.80
2018-12-16T23:16:33.731Z,54.50
2018-12-16T23:19:02.014Z,54.80
2018-12-16T23:21:30.239Z,54.70
2018-12-16T23:23:58.371Z,54.60
2018-12-16T23:26:26.543Z,54.30
2018-12-16T23:28:54.681Z,54.00
2018-12-16T23:31:22.941Z,54.50
2018-12-16T23:33:51.082Z,53.60
2018-12-16T23:36:19.207Z,52.40
2018-12-16T23:38:47.379Z,51.50
2018-12-16T23:41:15.539Z,51.40
2018-12-16T23:43:43.740Z,50.50
2018-12-16T23:46:11.901Z,50.10
2018-12-16T23:48:40.245Z,50.00
2018-12-16T23:51:08.433Z,50.90
2018-12-16T23:53:36.615Z,50.80
2018-12-16T23:56:04.990Z,51.30
2018-12-16T23:58:33.159Z,50.90
